sensor_id;sensor_type;location;lat;lon;timestamp;pressure;altitude;pressure_sealevel;temperature;humidity
56831;BME280;42713;42.676;23.352;2023-07-13T00:00:23;95024.38;;;26.28;41.89
56831;BME280;42713;42.676;23.352;2023-07-13T00:02:49;95030.75;;;26.23;41.91
56831;BME280;42713;42.676;23.352;2023-07-13T00:05:14;95031.44;;;26.20;42.10
56831;BME280;42713;42.676;23.352;2023-07-13T00:07:40;95025.63;;;26.18;42.17
56831;BME280;42713;42.676;23.352;2023-07-13T00:10:06;95028.63;;;26.16;42.35
56831;BME280;42713;42.676;23.352;2023-07-13T00:12:38;95028.72;;;26.07;42.03
56831;BME280;42713;42.676;23.352;2023-07-13T00:15:07;95025.34;;;25.98;42.79
56831;BME280;42713;42.676;23.352;2023-07-13T00:17:35;95031.03;;;25.84;43.64
56831;BME280;42713;42.676;23.352;2023-07-13T00:20:00;95024.63;;;25.76;44.20
56831;BME280;42713;42.676;23.352;2023-07-13T00:22:26;95025.97;;;25.70;45.20
56831;BME280;42713;42.676;23.352;2023-07-13T00:24:52;95011.19;;;25.64;45.05
56831;BME280;42713;42.676;23.352;2023-07-13T00:27:20;95012.06;;;25.56;45.85
56831;BME280;42713;42.676;23.352;2023-07-13T00:29:46;95017.19;;;25.48;45.80
56831;BME280;42713;42.676;23.352;2023-07-13T00:32:11;95006.66;;;25.43;46.13
56831;BME280;42713;42.676;23.352;2023-07-13T00:34:38;95015.66;;;25.39;46.56
56831;BME280;42713;42.676;23.352;2023-07-13T00:37:05;95012.84;;;25.35;46.72
56831;BME280;42713;42.676;23.352;2023-07-13T00:39:34;95014.75;;;25.35;46.58
56831;BME280;42713;42.676;23.352;2023-07-13T00:42:00;95016.41;;;25.27;46.45
56831;BME280;42713;42.676;23.352;2023-07-13T00:44:26;95010.44;;;25.21;46.90
56831;BME280;42713;42.676;23.352;2023-07-13T00:46:51;95009.22;;;25.18;47.31
56831;BME280;42713;42.676;23.352;2023-07-13T00:49:22;95015.09;;;25.12;47.60
56831;BME280;42713;42.676;23.352;2023-07-13T00:51:55;95018.13;;;25.10;47.98
56831;BME280;42713;42.676;23.352;2023-07-13T00:54:24;95017.19;;;25.06;47.89
56831;BME280;42713;42.676;23.352;2023-07-13T00:56:55;95016.31;;;25.02;48.37
56831;BME280;42713;42.676;23.352;2023-07-13T00:59:23;95006.69;;;25.01;49.12
56831;BME280;42713;42.676;23.352;2023-07-13T01:01:49;95012.81;;;25.01;49.58
56831;BME280;42713;42.676;23.352;2023-07-13T01:04:15;95006.09;;;24.95;50.39
56831;BME280;42713;42.676;23.352;2023-07-13T01:06:41;95013.88;;;24.88;50.84
56831;BME280;42713;42.676;23.352;2023-07-13T01:09:09;95006.16;;;24.86;51.54
56831;BME280;42713;42.676;23.352;2023-07-13T01:11:35;95004.00;;;24.80;51.88
56831;BME280;42713;42.676;23.352;2023-07-13T01:14:01;94999.44;;;24.80;51.31
56831;BME280;42713;42.676;23.352;2023-07-13T01:16:32;95006.84;;;24.83;51.02
56831;BME280;42713;42.676;23.352;2023-07-13T01:18:59;95007.13;;;24.82;50.90
56831;BME280;42713;42.676;23.352;2023-07-13T01:21:29;94999.31;;;24.77;49.39
56831;BME280;42713;42.676;23.352;2023-07-13T01:23:55;94997.16;;;24.70;50.54
56831;BME280;42713;42.676;23.352;2023-07-13T01:26:21;94997.47;;;24.68;52.35
56831;BME280;42713;42.676;23.352;2023-07-13T01:28:47;94991.81;;;24.61;52.29
56831;BME280;42713;42.676;23.352;2023-07-13T01:31:12;95006.50;;;24.55;53.34
56831;BME280;42713;42.676;23.352;2023-07-13T01:33:40;94999.44;;;24.50;53.80
56831;BME280;42713;42.676;23.352;2023-07-13T01:36:07;94999.63;;;24.45;53.92
56831;BME280;42713;42.676;23.352;2023-07-13T01:38:34;95006.63;;;24.37;54.29
56831;BME280;42713;42.676;23.352;2023-07-13T01:41:00;95004.56;;;24.34;54.39
56831;BME280;42713;42.676;23.352;2023-07-13T01:43:25;95001.91;;;24.34;53.97
56831;BME280;42713;42.676;23.352;2023-07-13T01:45:51;95004.91;;;24.33;54.37
56831;BME280;42713;42.676;23.352;2023-07-13T01:48:17;95000.31;;;24.33;54.40
56831;BME280;42713;42.676;23.352;2023-07-13T01:50:42;94995.78;;;24.34;54.27
56831;BME280;42713;42.676;23.352;2023-07-13T01:53:09;94996.06;;;24.32;54.28
56831;BME280;42713;42.676;23.352;2023-07-13T01:55:35;94998.28;;;24.30;54.61
56831;BME280;42713;42.676;23.352;2023-07-13T01:58:01;94994.38;;;24.28;54.14
56831;BME280;42713;42.676;23.352;2023-07-13T02:00:28;94989.03;;;24.28;54.06
56831;BME280;42713;42.676;23.352;2023-07-13T02:02:54;95000.06;;;24.26;54.39
56831;BME280;42713;42.676;23.352;2023-07-13T02:05:21;95002.13;;;24.20;54.71
56831;BME280;42713;42.676;23.352;2023-07-13T02:07:46;95003.56;;;24.18;54.67
56831;BME280;42713;42.676;23.352;2023-07-13T02:10:12;95002.16;;;24.12;54.62
56831;BME280;42713;42.676;23.352;2023-07-13T02:12:38;95002.50;;;24.10;52.91
56831;BME280;42713;42.676;23.352;2023-07-13T02:15:04;95010.19;;;24.12;52.97
56831;BME280;42713;42.676;23.352;2023-07-13T02:17:31;95002.50;;;24.10;52.80
56831;BME280;42713;42.676;23.352;2023-07-13T02:19:56;95006.75;;;24.11;52.32
56831;BME280;42713;42.676;23.352;2023-07-13T02:22:22;95004.19;;;24.15;53.60
56831;BME280;42713;42.676;23.352;2023-07-13T02:24:48;95002.16;;;24.12;53.81
56831;BME280;42713;42.676;23.352;2023-07-13T02:27:13;95001.25;;;24.07;53.74
56831;BME280;42713;42.676;23.352;2023-07-13T02:29:39;95017.16;;;24.04;53.36
56831;BME280;42713;42.676;23.352;2023-07-13T02:32:05;95020.00;;;23.99;53.13
56831;BME280;42713;42.676;23.352;2023-07-13T02:34:30;95016.41;;;23.95;53.16
56831;BME280;42713;42.676;23.352;2023-07-13T02:36:58;95011.66;;;23.91;53.56
56831;BME280;42713;42.676;23.352;2023-07-13T02:39:23;95010.59;;;23.84;54.33
56831;BME280;42713;42.676;23.352;2023-07-13T02:41:49;95012.66;;;23.78;54.82
56831;BME280;42713;42.676;23.352;2023-07-13T02:44:15;95015.19;;;23.74;55.13
56831;BME280;42713;42.676;23.352;2023-07-13T02:46:42;95017.56;;;23.67;54.92
56831;BME280;42713;42.676;23.352;2023-07-13T02:49:10;95014.59;;;23.60;54.89
56831;BME280;42713;42.676;23.352;2023-07-13T02:51:35;95018.03;;;23.60;56.02
56831;BME280;42713;42.676;23.352;2023-07-13T02:54:02;95011.31;;;23.54;55.43
56831;BME280;42713;42.676;23.352;2023-07-13T02:56:30;95014.28;;;23.53;56.32
56831;BME280;42713;42.676;23.352;2023-07-13T02:58:56;95015.22;;;23.48;55.30
56831;BME280;42713;42.676;23.352;2023-07-13T03:01:22;95018.56;;;23.45;55.94
56831;BME280;42713;42.676;23.352;2023-07-13T03:03:50;95024.53;;;23.42;55.63
56831;BME280;42713;42.676;23.352;2023-07-13T03:06:16;95027.81;;;23.39;55.51
56831;BME280;42713;42.676;23.352;2023-07-13T03:08:42;95022.31;;;23.35;55.47
56831;BME280;42713;42.676;23.352;2023-07-13T03:11:11;95026.91;;;23.35;54.96
56831;BME280;42713;42.676;23.352;2023-07-13T03:13:38;95027.69;;;23.35;53.85
56831;BME280;42713;42.676;23.352;2023-07-13T03:16:04;95026.09;;;23.34;55.38
56831;BME280;42713;42.676;23.352;2023-07-13T03:18:31;95030.03;;;23.37;55.08
56831;BME280;42713;42.676;23.352;2023-07-13T03:20:56;95030.34;;;23.35;54.57
56831;BME280;42713;42.676;23.352;2023-07-13T03:23:22;95028.78;;;23.34;55.56
56831;BME280;42713;42.676;23.352;2023-07-13T03:25:48;95032.88;;;23.31;56.34
56831;BME280;42713;42.676;23.352;2023-07-13T03:28:14;95025.19;;;23.30;56.92
56831;BME280;42713;42.676;23.352;2023-07-13T03:30:40;95030.81;;;23.28;57.15
56831;BME280;42713;42.676;23.352;2023-07-13T03:33:05;95034.28;;;23.20;59.11
56831;BME280;42713;42.676;23.352;2023-07-13T03:35:35;95038.06;;;23.19;58.98
56831;BME280;42713;42.676;23.352;2023-07-13T03:38:01;95045.13;;;23.15;58.54
56831;BME280;42713;42.676;23.352;2023-07-13T03:40:27;95046.84;;;23.11;59.15
56831;BME280;42713;42.676;23.352;2023-07-13T03:42:53;95044.00;;;23.07;59.58
56831;BME280;42713;42.676;23.352;2023-07-13T03:45:19;95033.16;;;23.04;59.55
56831;BME280;42713;42.676;23.352;2023-07-13T03:47:45;95035.03;;;23.03;60.54
56831;BME280;42713;42.676;23.352;2023-07-13T03:50:10;95029.25;;;23.01;60.98
56831;BME280;42713;42.676;23.352;2023-07-13T03:52:36;95028.75;;;23.08;61.51
56831;BME280;42713;42.676;23.352;2023-07-13T03:55:02;95041.50;;;23.11;61.86
56831;BME280;42713;42.676;23.352;2023-07-13T03:57:28;95037.56;;;22.99;62.51
56831;BME280;42713;42.676;23.352;2023-07-13T03:59:53;95038.81;;;22.93;62.87
56831;BME280;42713;42.676;23.352;2023-07-13T04:02:20;95035.34;;;22.84;63.17
56831;BME280;42713;42.676;23.352;2023-07-13T04:04:46;95036.13;;;22.84;63.14
56831;BME280;42713;42.676;23.352;2023-07-13T04:07:12;95039.44;;;22.81;63.24
56831;BME280;42713;42.676;23.352;2023-07-13T04:09:37;95029.53;;;22.82;63.38
56831;BME280;42713;42.676;23.352;2023-07-13T04:12:03;95032.22;;;22.82;63.41
56831;BME280;42713;42.676;23.352;2023-07-13T04:14:28;95031.88;;;22.83;63.72
56831;BME280;42713;42.676;23.352;2023-07-13T04:16:54;95036.59;;;22.87;63.58
56831;BME280;42713;42.676;23.352;2023-07-13T04:19:20;95037.56;;;22.91;63.53
56831;BME280;42713;42.676;23.352;2023-07-13T04:21:46;95044.47;;;23.00;63.39
56831;BME280;42713;42.676;23.352;2023-07-13T04:24:12;95041.66;;;23.06;63.14
56831;BME280;42713;42.676;23.352;2023-07-13T04:26:38;95050.31;;;23.11;63.17
56831;BME280;42713;42.676;23.352;2023-07-13T04:29:04;95050.75;;;23.13;62.97
56831;BME280;42713;42.676;23.352;2023-07-13T04:31:30;95059.91;;;23.21;62.45
56831;BME280;42713;42.676;23.352;2023-07-13T04:33:56;95054.44;;;23.26;62.11
56831;BME280;42713;42.676;23.352;2023-07-13T04:36:22;95059.59;;;23.31;61.46
56831;BME280;42713;42.676;23.352;2023-07-13T04:38:48;95044.03;;;23.34;60.73
56831;BME280;42713;42.676;23.352;2023-07-13T04:41:14;95049.69;;;23.41;59.47
56831;BME280;42713;42.676;23.352;2023-07-13T04:43:41;95053.31;;;23.45;59.26
56831;BME280;42713;42.676;23.352;2023-07-13T04:46:09;95052.34;;;23.50;58.64
56831;BME280;42713;42.676;23.352;2023-07-13T04:48:36;95058.78;;;23.57;59.67
56831;BME280;42713;42.676;23.352;2023-07-13T04:51:11;95064.28;;;23.61;59.67
56831;BME280;42713;42.676;23.352;2023-07-13T04:53:36;95066.03;;;23.66;59.55
56831;BME280;42713;42.676;23.352;2023-07-13T04:56:03;95074.50;;;23.68;59.36
56831;BME280;42713;42.676;23.352;2023-07-13T04:58:29;95069.13;;;23.68;59.29
56831;BME280;42713;42.676;23.352;2023-07-13T05:01:00;95081.13;;;23.70;58.95
56831;BME280;42713;42.676;23.352;2023-07-13T05:03:26;95070.56;;;23.74;58.56
56831;BME280;42713;42.676;23.352;2023-07-13T05:05:59;95068.03;;;23.77;57.88
56831;BME280;42713;42.676;23.352;2023-07-13T05:08:25;95069.13;;;23.76;58.03
56831;BME280;42713;42.676;23.352;2023-07-13T05:10:51;95076.19;;;23.81;57.77
56831;BME280;42713;42.676;23.352;2023-07-13T05:13:17;95074.47;;;23.85;57.28
56831;BME280;42713;42.676;23.352;2023-07-13T05:15:42;95074.91;;;23.87;57.87
56831;BME280;42713;42.676;23.352;2023-07-13T05:18:08;95085.13;;;23.94;58.04
56831;BME280;42713;42.676;23.352;2023-07-13T05:20:33;95082.97;;;23.96;58.75
56831;BME280;42713;42.676;23.352;2023-07-13T05:22:59;95081.69;;;24.02;59.09
56831;BME280;42713;42.676;23.352;2023-07-13T05:25:24;95081.38;;;24.04;58.79
56831;BME280;42713;42.676;23.352;2023-07-13T05:27:50;95083.09;;;24.08;58.58
56831;BME280;42713;42.676;23.352;2023-07-13T05:30:15;95080.56;;;24.12;58.35
56831;BME280;42713;42.676;23.352;2023-07-13T05:32:41;95079.28;;;24.18;57.74
56831;BME280;42713;42.676;23.352;2023-07-13T05:35:07;95077.53;;;24.22;57.31
56831;BME280;42713;42.676;23.352;2023-07-13T05:37:33;95090.25;;;24.25;57.14
56831;BME280;42713;42.676;23.352;2023-07-13T05:39:58;95079.38;;;24.31;57.20
56831;BME280;42713;42.676;23.352;2023-07-13T05:42:24;95086.13;;;24.37;58.06
56831;BME280;42713;42.676;23.352;2023-07-13T05:44:49;95085.16;;;24.42;57.35
56831;BME280;42713;42.676;23.352;2023-07-13T05:47:15;95085.75;;;24.47;57.80
56831;BME280;42713;42.676;23.352;2023-07-13T05:49:41;95089.50;;;24.55;57.79
56831;BME280;42713;42.676;23.352;2023-07-13T05:52:07;95086.97;;;24.59;57.15
56831;BME280;42713;42.676;23.352;2023-07-13T05:54:32;95080.97;;;24.62;56.68
56831;BME280;42713;42.676;23.352;2023-07-13T05:56:57;95074.66;;;24.66;56.61
56831;BME280;42713;42.676;23.352;2023-07-13T05:59:23;95080.19;;;24.70;56.73
56831;BME280;42713;42.676;23.352;2023-07-13T06:01:49;95079.53;;;24.73;56.89
56831;BME280;42713;42.676;23.352;2023-07-13T06:04:14;95071.78;;;24.80;57.17
56831;BME280;42713;42.676;23.352;2023-07-13T06:06:40;95068.44;;;24.83;57.46
56831;BME280;42713;42.676;23.352;2023-07-13T06:09:05;95070.28;;;24.92;57.39
56831;BME280;42713;42.676;23.352;2023-07-13T06:11:31;95067.41;;;24.97;57.23
56831;BME280;42713;42.676;23.352;2023-07-13T06:13:56;95074.16;;;25.03;56.35
56831;BME280;42713;42.676;23.352;2023-07-13T06:16:22;95086.22;;;25.09;56.99
56831;BME280;42713;42.676;23.352;2023-07-13T06:18:51;95077.22;;;25.14;55.61
56831;BME280;42713;42.676;23.352;2023-07-13T06:21:18;95089.16;;;25.16;55.42
56831;BME280;42713;42.676;23.352;2023-07-13T06:23:46;95087.41;;;25.21;55.33
56831;BME280;42713;42.676;23.352;2023-07-13T06:26:15;95076.34;;;25.22;54.10
56831;BME280;42713;42.676;23.352;2023-07-13T06:28:41;95080.41;;;25.28;53.89
56831;BME280;42713;42.676;23.352;2023-07-13T06:31:11;95083.22;;;25.32;53.18
56831;BME280;42713;42.676;23.352;2023-07-13T06:33:37;95090.94;;;25.33;52.96
56831;BME280;42713;42.676;23.352;2023-07-13T06:36:07;95079.88;;;25.35;54.32
56831;BME280;42713;42.676;23.352;2023-07-13T06:38:33;95081.28;;;25.41;54.88
56831;BME280;42713;42.676;23.352;2023-07-13T06:40:58;95073.84;;;25.47;54.28
56831;BME280;42713;42.676;23.352;2023-07-13T06:43:24;95079.31;;;25.51;53.58
56831;BME280;42713;42.676;23.352;2023-07-13T06:45:50;95072.16;;;25.55;54.34
56831;BME280;42713;42.676;23.352;2023-07-13T06:48:17;95078.91;;;25.61;54.53
56831;BME280;42713;42.676;23.352;2023-07-13T06:50:44;95069.06;;;25.65;54.68
56831;BME280;42713;42.676;23.352;2023-07-13T06:53:10;95075.81;;;25.71;54.40
56831;BME280;42713;42.676;23.352;2023-07-13T06:55:37;95068.66;;;25.75;53.15
56831;BME280;42713;42.676;23.352;2023-07-13T06:58:03;95075.72;;;25.80;53.76
56831;BME280;42713;42.676;23.352;2023-07-13T07:00:29;95077.09;;;25.86;52.98
56831;BME280;42713;42.676;23.352;2023-07-13T07:02:54;95071.03;;;25.89;51.80
56831;BME280;42713;42.676;23.352;2023-07-13T07:05:19;95080.78;;;25.94;51.38
56831;BME280;42713;42.676;23.352;2023-07-13T07:07:48;95080.31;;;25.92;50.09
56831;BME280;42713;42.676;23.352;2023-07-13T07:10:13;95074.19;;;25.91;49.87
56831;BME280;42713;42.676;23.352;2023-07-13T07:12:38;95079.91;;;25.90;49.29
56831;BME280;42713;42.676;23.352;2023-07-13T07:15:04;95077.66;;;25.92;49.81
56831;BME280;42713;42.676;23.352;2023-07-13T07:17:30;95072.84;;;25.98;50.66
56831;BME280;42713;42.676;23.352;2023-07-13T07:19:55;95071.53;;;26.04;51.90
56831;BME280;42713;42.676;23.352;2023-07-13T07:22:21;95069.13;;;26.11;52.60
56831;BME280;42713;42.676;23.352;2023-07-13T07:24:46;95063.84;;;26.15;51.98
56831;BME280;42713;42.676;23.352;2023-07-13T07:27:12;95071.03;;;26.23;50.76
56831;BME280;42713;42.676;23.352;2023-07-13T07:29:37;95071.94;;;26.27;51.08
56831;BME280;42713;42.676;23.352;2023-07-13T07:32:03;95065.56;;;26.32;50.84
56831;BME280;42713;42.676;23.352;2023-07-13T07:34:29;95070.38;;;26.38;49.83
56831;BME280;42713;42.676;23.352;2023-07-13T07:37:00;95057.50;;;26.44;50.57
56831;BME280;42713;42.676;23.352;2023-07-13T07:39:26;95060.75;;;26.50;51.19
56831;BME280;42713;42.676;23.352;2023-07-13T07:41:52;95060.53;;;26.55;51.86
56831;BME280;42713;42.676;23.352;2023-07-13T07:44:17;95059.50;;;26.60;51.26
56831;BME280;42713;42.676;23.352;2023-07-13T07:46:46;95055.47;;;26.66;51.15
56831;BME280;42713;42.676;23.352;2023-07-13T07:49:11;95042.81;;;26.66;50.07
56831;BME280;42713;42.676;23.352;2023-07-13T07:51:37;95049.06;;;26.70;49.47
56831;BME280;42713;42.676;23.352;2023-07-13T07:54:03;95047.97;;;26.71;49.61
56831;BME280;42713;42.676;23.352;2023-07-13T07:56:29;95051.69;;;26.79;50.68
56831;BME280;42713;42.676;23.352;2023-07-13T07:58:54;95045.75;;;26.86;49.93
56831;BME280;42713;42.676;23.352;2023-07-13T08:01:20;95039.25;;;26.87;48.76
56831;BME280;42713;42.676;23.352;2023-07-13T08:03:45;95041.94;;;26.87;48.64
56831;BME280;42713;42.676;23.352;2023-07-13T08:06:11;95032.41;;;26.90;49.20
56831;BME280;42713;42.676;23.352;2023-07-13T08:08:36;95023.78;;;26.96;49.33
56831;BME280;42713;42.676;23.352;2023-07-13T08:11:03;95019.34;;;27.04;48.97
56831;BME280;42713;42.676;23.352;2023-07-13T08:13:29;95022.59;;;27.10;49.57
56831;BME280;42713;42.676;23.352;2023-07-13T08:15:54;95016.53;;;27.13;47.88
56831;BME280;42713;42.676;23.352;2023-07-13T08:18:20;95023.22;;;27.19;47.60
56831;BME280;42713;42.676;23.352;2023-07-13T08:20:46;95020.22;;;27.21;48.54
56831;BME280;42713;42.676;23.352;2023-07-13T08:23:11;95018.53;;;27.28;48.63
56831;BME280;42713;42.676;23.352;2023-07-13T08:25:37;95008.63;;;27.32;48.67
56831;BME280;42713;42.676;23.352;2023-07-13T08:28:03;95012.22;;;27.37;47.73
56831;BME280;42713;42.676;23.352;2023-07-13T08:30:29;95011.28;;;27.45;47.81
56831;BME280;42713;42.676;23.352;2023-07-13T08:32:54;95013.41;;;27.52;48.38
56831;BME280;42713;42.676;23.352;2023-07-13T08:35:20;95008.97;;;27.59;48.67
56831;BME280;42713;42.676;23.352;2023-07-13T08:37:53;95003.25;;;27.61;48.96
56831;BME280;42713;42.676;23.352;2023-07-13T08:40:24;94999.97;;;27.68;49.76
56831;BME280;42713;42.676;23.352;2023-07-13T08:42:57;94991.63;;;27.73;49.81
56831;BME280;42713;42.676;23.352;2023-07-13T08:52:02;95002.94;;;27.78;51.15
56831;BME280;42713;42.676;23.352;2023-07-13T08:54:49;95004.13;;;27.81;53.32
56831;BME280;42713;42.676;23.352;2023-07-13T08:58:18;95003.78;;;27.83;55.69
56831;BME280;42713;42.676;23.352;2023-07-13T09:00:51;95002.94;;;27.78;52.84
56831;BME280;42713;42.676;23.352;2023-07-13T09:03:24;95010.19;;;27.78;54.40
56831;BME280;42713;42.676;23.352;2023-07-13T09:06:02;95024.81;;;27.77;53.84
56831;BME280;42713;42.676;23.352;2023-07-13T09:11:52;95032.00;;;27.73;52.18
56831;BME280;42713;42.676;23.352;2023-07-13T09:14:42;95035.13;;;27.75;50.97
56831;BME280;42713;42.676;23.352;2023-07-13T09:17:13;95031.72;;;27.78;53.49
56831;BME280;42713;42.676;23.352;2023-07-13T09:19:40;95022.63;;;27.83;53.15
56831;BME280;42713;42.676;23.352;2023-07-13T09:22:11;95026.56;;;27.85;53.43
56831;BME280;42713;42.676;23.352;2023-07-13T09:24:52;95030.09;;;27.89;53.16
56831;BME280;42713;42.676;23.352;2023-07-13T09:27:23;95029.88;;;27.94;53.30
56831;BME280;42713;42.676;23.352;2023-07-13T09:32:48;95026.13;;;27.99;49.25
56831;BME280;42713;42.676;23.352;2023-07-13T09:35:22;95023.59;;;28.06;50.26
56831;BME280;42713;42.676;23.352;2023-07-13T09:37:50;95021.09;;;28.14;46.43
56831;BME280;42713;42.676;23.352;2023-07-13T09:40:53;95020.06;;;28.18;47.30
56831;BME280;42713;42.676;23.352;2023-07-13T09:43:15;95022.06;;;28.21;48.51
56831;BME280;42713;42.676;23.352;2023-07-13T09:45:45;95017.56;;;28.25;48.85
56831;BME280;42713;42.676;23.352;2023-07-13T09:48:13;95010.59;;;28.24;48.79
56831;BME280;42713;42.676;23.352;2023-07-13T09:50:39;95002.16;;;28.26;47.02
56831;BME280;42713;42.676;23.352;2023-07-13T09:53:15;95003.38;;;28.29;47.48
56831;BME280;42713;42.676;23.352;2023-07-13T09:55:42;94985.47;;;28.36;48.95
56831;BME280;42713;42.676;23.352;2023-07-13T09:58:15;94976.34;;;28.41;49.95
56831;BME280;42713;42.676;23.352;2023-07-13T10:00:43;94981.88;;;28.48;51.61
56831;BME280;42713;42.676;23.352;2023-07-13T10:03:23;94985.44;;;28.52;53.13
56831;BME280;42713;42.676;23.352;2023-07-13T10:05:50;94982.91;;;28.60;53.34
56831;BME280;42713;42.676;23.352;2023-07-13T10:08:21;94979.50;;;28.63;53.03
56831;BME280;42713;42.676;23.352;2023-07-13T10:10:53;94979.84;;;28.61;51.15
56831;BME280;42713;42.676;23.352;2023-07-13T10:13:40;94965.59;;;28.61;48.37
56831;BME280;42713;42.676;23.352;2023-07-13T10:16:07;94964.19;;;28.67;48.16
56831;BME280;42713;42.676;23.352;2023-07-13T10:18:48;94970.91;;;28.73;49.39
56831;BME280;42713;42.676;23.352;2023-07-13T10:21:16;94965.59;;;28.77;50.53
56831;BME280;42713;42.676;23.352;2023-07-13T10:23:46;94966.72;;;28.76;48.96
56831;BME280;42713;42.676;23.352;2023-07-13T10:26:18;94960.31;;;28.84;49.31
56831;BME280;42713;42.676;23.352;2023-07-13T10:28:47;94956.50;;;28.85;48.28
56831;BME280;42713;42.676;23.352;2023-07-13T10:31:15;94952.47;;;28.95;47.98
56831;BME280;42713;42.676;23.352;2023-07-13T10:33:42;94952.19;;;29.00;48.46
56831;BME280;42713;42.676;23.352;2023-07-13T10:36:48;94951.75;;;28.98;43.39
56831;BME280;42713;42.676;23.352;2023-07-13T10:39:19;94943.78;;;29.05;40.45
56831;BME280;42713;42.676;23.352;2023-07-13T10:41:50;94956.28;;;29.13;35.86
56831;BME280;42713;42.676;23.352;2023-07-13T10:44:35;94953.84;;;29.28;36.05
56831;BME280;42713;42.676;23.352;2023-07-13T10:47:07;94943.63;;;29.37;36.65
56831;BME280;42713;42.676;23.352;2023-07-13T10:49:35;94937.22;;;29.45;36.80
56831;BME280;42713;42.676;23.352;2023-07-13T10:52:02;94931.50;;;29.47;35.67
56831;BME280;42713;42.676;23.352;2023-07-13T10:54:36;94924.38;;;29.58;34.85
56831;BME280;42713;42.676;23.352;2023-07-13T10:57:21;94916.38;;;29.65;34.81
56831;BME280;42713;42.676;23.352;2023-07-13T11:02:30;94919.81;;;29.89;35.52
56831;BME280;42713;42.676;23.352;2023-07-13T11:04:56;94922.72;;;30.00;35.87
56831;BME280;42713;42.676;23.352;2023-07-13T11:07:28;94913.59;;;30.08;33.25
56831;BME280;42713;42.676;23.352;2023-07-13T11:09:59;94897.56;;;30.23;31.40
56831;BME280;42713;42.676;23.352;2023-07-13T11:25:33;94884.59;;;31.76;28.70
56831;BME280;42713;42.676;23.352;2023-07-13T11:36:13;94863.38;;;32.48;28.25
56831;BME280;42713;42.676;23.352;2023-07-13T11:38:47;94870.81;;;32.66;27.82
56831;BME280;42713;42.676;23.352;2023-07-13T11:41:22;94863.53;;;32.81;28.23
56831;BME280;42713;42.676;23.352;2023-07-13T11:43:53;94867.44;;;32.94;27.64
56831;BME280;42713;42.676;23.352;2023-07-13T11:46:26;94862.81;;;33.09;28.63
56831;BME280;42713;42.676;23.352;2023-07-13T11:48:53;94873.31;;;33.14;28.67
56831;BME280;42713;42.676;23.352;2023-07-13T11:51:31;94865.16;;;33.21;28.91
56831;BME280;42713;42.676;23.352;2023-07-13T11:54:22;94863.22;;;33.15;29.14
56831;BME280;42713;42.676;23.352;2023-07-13T11:56:44;94848.84;;;33.00;29.82
56831;BME280;42713;42.676;23.352;2023-07-13T11:59:12;94850.81;;;33.03;30.17
56831;BME280;42713;42.676;23.352;2023-07-13T12:01:51;94851.59;;;33.14;30.96
56831;BME280;42713;42.676;23.352;2023-07-13T12:04:27;94841.09;;;33.16;30.41
56831;BME280;42713;42.676;23.352;2023-07-13T12:07:12;94843.81;;;33.16;31.20
56831;BME280;42713;42.676;23.352;2023-07-13T12:09:39;94839.94;;;33.14;29.75
56831;BME280;42713;42.676;23.352;2023-07-13T12:12:11;94843.44;;;33.07;29.23
56831;BME280;42713;42.676;23.352;2023-07-13T12:14:38;94856.63;;;33.12;29.56
56831;BME280;42713;42.676;23.352;2023-07-13T12:17:15;94848.88;;;33.11;28.32
56831;BME280;42713;42.676;23.352;2023-07-13T12:19:41;94832.97;;;33.02;27.93
56831;BME280;42713;42.676;23.352;2023-07-13T12:22:12;94829.44;;;32.98;28.06
56831;BME280;42713;42.676;23.352;2023-07-13T12:24:40;94810.50;;;33.05;29.26
56831;BME280;42713;42.676;23.352;2023-07-13T12:27:19;94812.81;;;33.14;28.64
56831;BME280;42713;42.676;23.352;2023-07-13T12:30:00;94817.47;;;33.24;28.10
56831;BME280;42713;42.676;23.352;2023-07-13T12:32:27;94805.88;;;33.34;28.25
56831;BME280;42713;42.676;23.352;2023-07-13T12:35:01;94811.31;;;33.49;27.59
56831;BME280;42713;42.676;23.352;2023-07-13T12:37:34;94803.16;;;33.56;26.96
56831;BME280;42713;42.676;23.352;2023-07-13T12:40:00;94803.13;;;33.71;27.81
56831;BME280;42713;42.676;23.352;2023-07-13T12:42:28;94804.69;;;33.79;27.40
56831;BME280;42713;42.676;23.352;2023-07-13T12:45:03;94785.66;;;33.93;27.40
56831;BME280;42713;42.676;23.352;2023-07-13T12:47:40;94775.88;;;34.14;27.59
56831;BME280;42713;42.676;23.352;2023-07-13T12:50:18;94777.34;;;34.29;27.38
56831;BME280;42713;42.676;23.352;2023-07-13T12:52:44;94786.25;;;34.37;27.71
56831;BME280;42713;42.676;23.352;2023-07-13T12:55:17;94787.81;;;34.45;26.55
56831;BME280;42713;42.676;23.352;2023-07-13T12:57:56;94787.00;;;34.52;27.88
56831;BME280;42713;42.676;23.352;2023-07-13T13:00:29;94778.00;;;34.63;27.56
56831;BME280;42713;42.676;23.352;2023-07-13T13:03:02;94767.41;;;34.79;26.55
56831;BME280;42713;42.676;23.352;2023-07-13T13:05:30;94768.47;;;35.00;27.77
56831;BME280;42713;42.676;23.352;2023-07-13T13:07:57;94765.72;;;35.07;26.19
56831;BME280;42713;42.676;23.352;2023-07-13T13:10:23;94770.63;;;35.27;26.81
56831;BME280;42713;42.676;23.352;2023-07-13T13:12:48;94761.53;;;35.44;27.11
56831;BME280;42713;42.676;23.352;2023-07-13T13:15:14;94760.56;;;35.65;27.88
56831;BME280;42713;42.676;23.352;2023-07-13T13:17:40;94754.88;;;35.87;27.39
56831;BME280;42713;42.676;23.352;2023-07-13T13:20:17;94757.00;;;36.10;27.49
56831;BME280;42713;42.676;23.352;2023-07-13T13:22:43;94754.31;;;36.38;29.54
56831;BME280;42713;42.676;23.352;2023-07-13T13:25:11;94747.44;;;36.57;26.92
56831;BME280;42713;42.676;23.352;2023-07-13T13:27:41;94751.44;;;36.80;26.16
56831;BME280;42713;42.676;23.352;2023-07-13T13:30:17;94746.81;;;37.04;25.88
56831;BME280;42713;42.676;23.352;2023-07-13T13:32:46;94749.13;;;37.29;27.55